Time;durP1;ratioP1;P1;durP2;ratioP2;P2;SDS_P1;SDS_P2;PMS_P1;PMS_P2;Temp;Humidity;BMP_temperature;BMP_pressure;BME280_temperature;BME280_humidity;BME280_pressure;Samples;Min_cycle;Max_cycle;Signal;HPM_P1;HPM_P2
2021/10/11 00:00:21;;;;;;;62.15;39.53;;;;;;;1.06;100.00;99839.59;2114602;28;20209;-77
2021/10/11 00:01:23;;;;;;;62.08;40.25;;;;;;;1.07;100.00;99840.38;2114815;28;20197;-77
2021/10/11 00:02:25;;;;;;;60.53;39.13;;;;;;;1.04;100.00;99843.41;2114625;28;20197;-77
2021/10/11 00:03:27;;;;;;;59.22;38.70;;;;;;;0.98;100.00;99837.22;2114628;28;20667;-76
2021/10/11 00:04:33;;;;;;;62.85;40.08;;;;;;;0.98;100.00;99839.03;2115338;28;20230;-77
2021/10/11 00:05:35;;;;;;;64.80;39.70;;;;;;;0.95;100.00;99836.81;2116085;28;20220;-77
2021/10/11 00:06:38;;;;;;;58.72;39.47;;;;;;;0.92;100.00;99835.44;2116487;28;20189;-77
2021/10/11 00:07:40;;;;;;;64.05;39.30;;;;;;;0.92;100.00;99840.69;2116309;28;20201;-77
2021/10/11 00:08:46;;;;;;;61.60;38.47;;;;;;;0.88;100.00;99829.00;2116435;28;20200;-77
2021/10/11 00:09:51;;;;;;;61.15;38.17;;;;;;;0.90;100.00;99826.97;2108556;28;20208;-77
2021/10/11 00:10:59;;;;;;;65.88;39.22;;;;;;;0.89;100.00;99830.63;2116314;28;20176;-76
2021/10/11 00:12:02;;;;;;;63.30;37.70;;;;;;;0.89;100.00;99830.63;2116783;28;20192;-77
2021/10/11 00:13:04;;;;;;;63.78;38.00;;;;;;;0.88;100.00;99823.75;2116387;27;20207;-76
2021/10/11 00:14:07;;;;;;;64.57;39.38;;;;;;;0.89;100.00;99825.38;2108085;28;20328;-76
2021/10/11 00:15:10;;;;;;;66.32;39.75;;;;;;;0.91;100.00;99827.78;2116091;28;20280;-76
2021/10/11 00:16:12;;;;;;;67.00;38.58;;;;;;;0.90;100.00;99816.47;2116256;28;20185;-77
2021/10/11 00:17:17;;;;;;;60.17;39.03;;;;;;;0.91;100.00;99825.16;2116862;27;20189;-76
2021/10/11 00:18:22;;;;;;;55.13;37.95;;;;;;;0.88;100.00;99818.50;2116279;28;20752;-76
2021/10/11 00:19:27;;;;;;;65.30;40.72;;;;;;;0.87;100.00;99816.91;2108671;28;20197;-76
2021/10/11 00:20:30;;;;;;;62.35;38.30;;;;;;;0.87;100.00;99816.06;2108481;28;20284;-76
2021/10/11 00:21:31;;;;;;;68.88;38.55;;;;;;;0.88;100.00;99817.72;2107735;28;20197;-76
2021/10/11 00:22:37;;;;;;;63.00;38.92;;;;;;;0.87;100.00;99816.91;2116199;28;20246;-76
2021/10/11 00:23:42;;;;;;;65.53;39.78;;;;;;;0.87;100.00;99819.53;2116291;28;20255;-76
2021/10/11 00:24:52;;;;;;;67.35;39.92;;;;;;;0.87;100.00;99822.16;2116170;28;20250;-76
2021/10/11 00:25:57;;;;;;;65.63;39.53;;;;;;;0.85;100.00;99824.97;2116621;27;20264;-76
2021/10/11 00:27:02;;;;;;;74.93;43.88;;;;;;;0.85;100.00;99818.91;2116301;27;20224;-76
2021/10/11 00:28:05;;;;;;;73.60;44.65;;;;;;;0.83;100.00;99811.25;2108057;28;20201;-76
2021/10/11 00:29:07;;;;;;;83.65;47.78;;;;;;;0.87;100.00;99811.66;2116117;28;20189;-75
2021/10/11 00:30:13;;;;;;;83.78;47.28;;;;;;;0.90;100.00;99815.66;2116390;27;20242;-76
2021/10/11 00:31:22;;;;;;;84.32;46.55;;;;;;;0.92;100.00;99814.41;2108216;28;20225;-75
2021/10/11 00:32:25;;;;;;;83.95;47.88;;;;;;;0.97;100.00;99811.97;2116180;28;20169;-75
2021/10/11 00:33:28;;;;;;;83.75;45.92;;;;;;;0.96;100.00;99812.19;2116737;28;20276;-75
2021/10/11 00:34:33;;;;;;;81.18;46.70;;;;;;;0.95;100.00;99808.72;2116602;28;20258;-75
2021/10/11 00:35:37;;;;;;;79.80;45.53;;;;;;;0.97;100.00;99809.34;2116556;28;20188;-75
2021/10/11 00:36:38;;;;;;;66.60;40.88;;;;;;;0.96;100.00;99807.75;2116207;27;20201;-75
2021/10/11 00:37:46;;;;;;;69.47;40.77;;;;;;;0.96;100.00;99805.13;2107495;28;20232;-75
2021/10/11 00:38:47;;;;;;;61.55;39.00;;;;;;;0.93;100.00;99800.28;2116144;28;20177;-75
2021/10/11 00:39:52;;;;;;;73.22;42.42;;;;;;;0.89;100.00;99806.97;2116126;28;20201;-75
2021/10/11 00:41:00;;;;;;;67.95;41.83;;;;;;;0.88;100.00;99802.75;2116040;28;20697;-76
2021/10/11 00:42:01;;;;;;;76.43;41.38;;;;;;;0.85;100.00;99800.53;2116269;27;20239;-76
2021/10/11 00:43:04;;;;;;;77.97;43.60;;;;;;;0.84;100.00;99806.81;2107485;28;20288;-76
2021/10/11 00:44:06;;;;;;;70.57;41.38;;;;;;;0.83;100.00;99795.50;2116140;28;20189;-76
2021/10/11 00:45:11;;;;;;;72.95;41.60;;;;;;;0.82;100.00;99801.78;2116196;27;20197;-76
2021/10/11 00:46:13;;;;;;;74.45;42.22;;;;;;;0.81;100.00;99802.00;2116281;28;20205;-76
2021/10/11 00:47:19;;;;;;;66.95;41.13;;;;;;;0.80;100.00;99806.44;2115790;28;20197;-76
2021/10/11 00:48:23;;;;;;;71.75;41.25;;;;;;;0.77;100.00;99796.34;2116344;27;20203;-76
2021/10/11 00:49:26;;;;;;;64.97;40.33;;;;;;;0.77;100.00;99806.84;2107744;28;20651;-76
2021/10/11 00:50:29;;;;;;;66.72;39.90;;;;;;;0.75;100.00;99806.25;2115856;28;20181;-76
2021/10/11 00:51:34;;;;;;;72.78;40.78;;;;;;;0.73;100.00;99816.19;2116504;28;20551;-76
2021/10/11 00:52:39;;;;;;;68.97;40.53;;;;;;;0.72;100.00;99804.06;2116261;27;20739;-76
2021/10/11 00:53:45;;;;;;;65.35;39.50;;;;;;;0.69;100.00;99796.59;2114930;28;20217;-76
2021/10/11 00:54:47;;;;;;;74.95;41.08;;;;;;;0.69;100.00;99806.31;2115809;28;20216;-75
2021/10/11 00:55:53;;;;;;;67.97;40.40;;;;;;;0.68;100.00;99802.06;2115962;28;20185;-75
2021/10/11 00:56:56;;;;;;;66.47;41.20;;;;;;;0.67;100.00;99803.91;2116469;28;20192;-75
2021/10/11 00:57:59;;;;;;;73.50;41.30;;;;;;;0.67;100.00;99805.72;2116462;28;20193;-76
2021/10/11 00:59:01;;;;;;;72.18;44.42;;;;;;;0.69;100.00;99808.94;2115705;28;20201;-75
2021/10/11 01:00:07;;;;;;;74.18;44.35;;;;;;;0.69;100.00;99807.09;2115854;28;20750;-75
2021/10/11 01:01:12;;;;;;;75.50;45.03;;;;;;;0.71;100.00;99804.28;2116662;28;20196;-75
2021/10/11 01:02:19;;;;;;;73.72;43.50;;;;;;;0.73;100.00;99803.06;2116252;28;20189;-76
2021/10/11 01:03:23;;;;;;;80.95;45.28;;;;;;;0.75;100.00;99792.31;2115872;28;20187;-76
2021/10/11 01:04:28;;;;;;;79.47;44.72;;;;;;;0.74;100.00;99798.59;2115824;28;20181;-76
2021/10/11 01:05:31;;;;;;;76.88;43.97;;;;;;;0.75;100.00;99792.31;2115702;28;20201;-76
2021/10/11 01:06:38;;;;;;;72.05;43.28;;;;;;;0.73;100.00;99794.38;2107507;28;20192;-76
2021/10/11 01:07:43;;;;;;;77.78;44.17;;;;;;;0.73;100.00;99789.91;2115837;28;20192;-76
2021/10/11 01:08:49;;;;;;;72.70;44.05;;;;;;;0.71;100.00;99785.91;2116075;27;20246;-76
2021/10/11 01:09:50;;;;;;;81.32;44.40;;;;;;;0.71;100.00;99780.66;2107827;28;20627;-76
2021/10/11 01:10:54;;;;;;;79.85;44.08;;;;;;;0.71;100.00;99791.16;2107338;28;20197;-76
2021/10/11 01:11:56;;;;;;;74.95;44.42;;;;;;;0.71;100.00;99776.22;2107356;28;20197;-76
2021/10/11 01:13:01;;;;;;;76.65;44.67;;;;;;;0.70;100.00;99779.84;2115881;28;20185;-76
2021/10/11 01:14:03;;;;;;;75.60;44.38;;;;;;;0.67;100.00;99777.63;2115981;27;20671;-76
2021/10/11 01:15:08;;;;;;;71.60;43.40;;;;;;;0.66;100.00;99783.91;2115617;28;20185;-77
2021/10/11 01:16:14;;;;;;;81.72;45.78;;;;;;;0.65;100.00;99786.75;2114896;28;20781;-76
2021/10/11 01:17:17;;;;;;;81.88;47.20;;;;;;;0.63;100.00;99789.59;2108169;28;20194;-77
2021/10/11 01:18:23;;;;;;;85.45;49.42;;;;;;;0.65;100.00;99792.00;2115646;28;20573;-76
2021/10/11 01:19:28;;;;;;;86.78;49.47;;;;;;;0.65;100.00;99786.75;2116339;28;20174;-76
2021/10/11 01:20:32;;;;;;;105.80;53.80;;;;;;;0.69;100.00;99787.91;2115614;28;20209;-77
2021/10/11 01:21:38;;;;;;;98.38;54.50;;;;;;;0.70;100.00;99784.31;2115734;28;20688;-76
2021/10/11 01:22:41;;;;;;;109.28;54.35;;;;;;;0.76;100.00;99784.22;2116227;28;20197;-76
2021/10/11 01:23:48;;;;;;;97.38;53.28;;;;;;;0.76;100.00;99786.84;2116422;28;20234;-76
2021/10/11 01:24:54;;;;;;;98.85;52.00;;;;;;;0.73;100.00;99784.66;2116197;28;20646;-76
2021/10/11 01:25:57;;;;;;;97.53;53.53;;;;;;;0.73;100.00;99789.91;2116095;28;20232;-76
2021/10/11 01:27:00;;;;;;;102.30;53.25;;;;;;;0.73;100.00;99779.41;2115882;27;20201;-76
2021/10/11 01:28:04;;;;;;;105.90;55.72;;;;;;;0.72;100.00;99784.88;2107372;28;20198;-77
2021/10/11 01:29:07;;;;;;;96.07;54.35;;;;;;;0.76;100.00;99786.84;2107797;28;20264;-76
2021/10/11 01:30:13;;;;;;;95.15;52.55;;;;;;;0.76;100.00;99784.22;2107630;28;20197;-76
2021/10/11 01:31:19;;;;;;;91.82;53.97;;;;;;;0.74;100.00;99785.47;2107563;28;20744;-76
2021/10/11 01:32:25;;;;;;;102.13;55.08;;;;;;;0.71;100.00;99770.97;2108024;28;20385;-76
2021/10/11 01:33:28;;;;;;;96.78;52.78;;;;;;;0.73;100.00;99778.63;2115666;28;20687;-76
2021/10/11 01:34:32;;;;;;;99.65;54.10;;;;;;;0.71;100.00;99778.03;2116320;28;20733;-76
2021/10/11 01:35:41;;;;;;;103.43;55.70;;;;;;;0.70;100.00;99771.19;2115645;27;20228;-76
2021/10/11 01:36:46;;;;;;;103.75;54.67;;;;;;;0.73;100.00;99776.00;2115522;28;20718;-76
2021/10/11 01:37:50;;;;;;;93.32;53.42;;;;;;;0.71;100.00;99775.41;2116394;28;20267;-76
2021/10/11 01:38:58;;;;;;;97.38;51.15;;;;;;;0.68;100.00;99770.56;2115826;27;20751;-76
2021/10/11 01:40:02;;;;;;;92.07;51.97;;;;;;;0.66;100.00;99777.84;2107836;28;20193;-76
2021/10/11 01:41:05;;;;;;;82.60;50.47;;;;;;;0.66;100.00;99768.16;2115612;28;20197;-76
2021/10/11 01:42:08;;;;;;;87.57;49.55;;;;;;;0.66;100.00;99769.97;2115644;28;20212;-76
2021/10/11 01:43:14;;;;;;;95.13;49.42;;;;;;;0.66;100.00;99767.34;2107377;28;20284;-76
2021/10/11 01:44:17;;;;;;;84.38;48.10;;;;;;;0.63;100.00;99768.59;2107564;28;20227;-76
2021/10/11 01:45:23;;;;;;;80.68;48.83;;;;;;;0.57;100.00;99770.25;2115509;28;20271;-76
2021/10/11 01:46:27;;;;;;;78.15;47.58;;;;;;;0.54;100.00;99767.25;2115580;27;20315;-76
2021/10/11 01:47:29;;;;;;;91.97;50.13;;;;;;;0.53;100.00;99766.44;2115450;28;20576;-76
2021/10/11 01:48:30;;;;;;;84.93;50.05;;;;;;;0.50;100.00;99769.47;2115380;28;20643;-76
2021/10/11 01:49:35;;;;;;;81.83;47.23;;;;;;;0.48;100.00;99771.50;2115473;28;20193;-76
2021/10/11 01:50:47;;;;;;;79.75;46.67;;;;;;;0.47;100.00;99769.09;2115382;28;20442;-75
2021/10/11 01:51:50;;;;;;;87.15;48.75;;;;;;;0.42;100.00;99764.47;2115660;28;20199;-76
2021/10/11 01:52:53;;;;;;;86.88;48.30;;;;;;;0.40;100.00;99768.34;2116047;28;20264;-76
2021/10/11 01:53:55;;;;;;;87.80;45.63;;;;;;;0.40;100.00;99765.72;2115644;27;20205;-76
2021/10/11 01:55:00;;;;;;;78.90;47.53;;;;;;;0.36;100.00;99762.72;2107130;28;20267;-76
2021/10/11 01:56:02;;;;;;;81.47;47.08;;;;;;;0.38;100.00;99768.56;2115462;28;20181;-76
2021/10/11 01:57:04;;;;;;;87.22;49.55;;;;;;;0.36;100.00;99767.97;2116094;28;20584;-76
2021/10/11 01:58:07;;;;;;;94.82;52.30;;;;;;;0.33;100.00;99767.56;2116030;28;20593;-76
2021/10/11 01:59:10;;;;;;;95.78;51.78;;;;;;;0.33;100.00;99773.63;2115917;28;20651;-76
2021/10/11 02:00:14;;;;;;;101.68;54.17;;;;;;;0.32;100.00;99765.97;2116023;28;20287;-76
2021/10/11 02:01:17;;;;;;;105.30;55.22;;;;;;;0.32;100.00;99772.03;2115579;28;20695;-76
2021/10/11 02:02:20;;;;;;;104.70;55.63;;;;;;;0.33;100.00;99762.31;2107207;28;20190;-76
2021/10/11 02:03:23;;;;;;;110.22;60.70;;;;;;;0.34;100.00;99766.56;2115347;28;20192;-76
2021/10/11 02:04:28;;;;;;;110.50;58.85;;;;;;;0.32;100.00;99765.97;2115312;28;20193;-76
2021/10/11 02:05:33;;;;;;;118.13;58.78;;;;;;;0.33;100.00;99763.13;2115834;28;20197;-76
2021/10/11 02:06:42;;;;;;;115.03;60.15;;;;;;;0.35;100.00;99771.63;2116147;27;20212;-76
2021/10/11 02:07:46;;;;;;;107.00;57.72;;;;;;;0.35;100.00;99771.63;2115502;27;20758;-76
2021/10/11 02:08:48;;;;;;;105.10;58.10;;;;;;;0.38;100.00;99759.88;2115275;28;20675;-76
2021/10/11 02:09:49;;;;;;;107.93;56.53;;;;;;;0.37;100.00;99761.72;2115171;28;20201;-76
2021/10/11 02:10:57;;;;;;;114.15;60.03;;;;;;;0.38;100.00;99763.31;2106622;28;20247;-76
2021/10/11 02:12:01;;;;;;;108.03;58.00;;;;;;;0.40;100.00;99763.09;2107718;28;20616;-76
2021/10/11 02:13:04;;;;;;;107.47;57.45;;;;;;;0.40;100.00;99748.16;2115368;28;20267;-75
2021/10/11 02:14:07;;;;;;;110.45;60.22;;;;;;;0.37;100.00;99748.59;2115453;28;20204;-76
2021/10/11 02:15:11;;;;;;;110.20;60.45;;;;;;;0.41;100.00;99751.56;2115306;28;20181;-76
2021/10/11 02:16:13;;;;;;;108.07;56.25;;;;;;;0.41;100.00;99743.69;2115871;28;20662;-76
2021/10/11 02:17:16;;;;;;;99.60;56.97;;;;;;;0.38;100.00;99747.56;2115142;28;20532;-76
2021/10/11 02:18:20;;;;;;;103.22;54.85;;;;;;;0.39;100.00;99749.16;2115268;28;20426;-76
2021/10/11 02:19:28;;;;;;;99.93;54.42;;;;;;;0.35;100.00;99745.38;2115188;28;20193;-76
2021/10/11 02:20:31;;;;;;;104.20;53.00;;;;;;;0.36;100.00;99749.59;2114711;28;20296;-75
2021/10/11 02:21:41;;;;;;;91.22;52.72;;;;;;;0.32;100.00;99745.78;2115154;28;20193;-75
2021/10/11 02:22:46;;;;;;;92.72;50.85;;;;;;;0.32;100.00;99750.22;2115497;27;20682;-76
2021/10/11 02:23:47;;;;;;;91.38;50.40;;;;;;;0.30;100.00;99747.81;2106960;28;20246;-75
2021/10/11 02:24:49;;;;;;;91.70;50.60;;;;;;;0.31;100.00;99746.00;2115410;28;20193;-75
2021/10/11 02:25:55;;;;;;;88.68;49.42;;;;;;;0.30;100.00;99739.13;2114991;28;20192;-75
2021/10/11 02:26:59;;;;;;;83.88;49.00;;;;;;;0.32;100.00;99744.97;2107684;28;20197;-75
2021/10/11 02:28:02;;;;;;;91.85;48.75;;;;;;;0.34;100.00;99746.38;2114234;28;20636;-75
2021/10/11 02:29:04;;;;;;;83.70;47.00;;;;;;;0.35;100.00;99736.66;2115251;28;20201;-75
2021/10/11 02:30:10;;;;;;;87.60;48.88;;;;;;;0.35;100.00;99740.13;2106654;28;20197;-75
2021/10/11 02:31:12;;;;;;;87.00;48.88;;;;;;;0.33;100.00;99743.97;2114344;28;20200;-76
2021/10/11 02:32:16;;;;;;;81.82;47.88;;;;;;;0.30;100.00;99742.56;2115117;28;20181;-75
2021/10/11 02:33:24;;;;;;;86.13;47.03;;;;;;;0.24;100.00;99738.16;2115770;28;20218;-76
2021/10/11 02:34:31;;;;;;;84.18;48.50;;;;;;;0.19;100.00;99738.81;2115379;28;20189;-75
2021/10/11 02:35:32;;;;;;;84.82;48.15;;;;;;;0.14;100.00;99733.38;2107468;28;20209;-76
2021/10/11 02:36:42;;;;;;;86.45;47.88;;;;;;;0.10;100.00;99736.66;2106809;28;20271;-75
2021/10/11 02:37:45;;;;;;;86.57;48.85;;;;;;;0.09;100.00;99738.47;2108169;28;20374;-75
2021/10/11 02:38:48;;;;;;;94.88;48.42;;;;;;;0.12;100.00;99735.41;2107219;28;20197;-75
2021/10/11 02:39:50;;;;;;;82.20;48.38;;;;;;;0.07;100.00;99731.81;2115016;28;20185;-75
2021/10/11 02:40:57;;;;;;;85.57;50.47;;;;;;;0.11;100.00;99744.31;2114969;28;20192;-75
2021/10/11 02:41:59;;;;;;;90.18;48.55;;;;;;;0.08;100.00;99739.47;2115156;28;20224;-75
2021/10/11 02:43:02;;;;;;;83.30;46.90;;;;;;;0.08;100.00;99738.66;2114525;28;20251;-75
2021/10/11 02:44:06;;;;;;;89.35;49.13;;;;;;;0.06;100.00;99733.63;2106633;28;20205;-75
2021/10/11 02:45:09;;;;;;;89.85;47.78;;;;;;;0.05;100.00;99733.84;2107188;28;20204;-75
2021/10/11 02:46:10;;;;;;;85.40;48.25;;;;;;;0.05;100.00;99739.09;2106651;28;20193;-75
2021/10/11 02:47:14;;;;;;;91.87;51.77;;;;;;;0.05;100.00;99733.84;2106537;28;20285;-75
2021/10/11 02:48:18;;;;;;;89.07;51.88;;;;;;;0.04;100.00;99727.78;2115235;28;20712;-75
2021/10/11 02:49:25;;;;;;;90.18;49.00;;;;;;;0.07;100.00;99731.81;2114918;27;20242;-75
2021/10/11 02:50:30;;;;;;;96.55;52.00;;;;;;;0.10;100.00;99724.34;2115187;28;20586;-75
2021/10/11 02:51:36;;;;;;;99.60;54.65;;;;;;;0.14;100.00;99727.31;2114903;28;20201;-75
2021/10/11 02:52:40;;;;;;;101.50;54.95;;;;;;;0.15;100.00;99723.69;2115035;28;20685;-75
2021/10/11 02:53:48;;;;;;;100.00;53.30;;;;;;;0.14;100.00;99722.06;2115183;28;20197;-75
2021/10/11 02:54:54;;;;;;;95.28;54.08;;;;;;;0.13;100.00;99721.28;2115018;28;20544;-75
2021/10/11 02:55:59;;;;;;;91.60;51.70;;;;;;;0.16;100.00;99720.03;2115439;28;20197;-75
2021/10/11 02:57:02;;;;;;;91.82;50.08;;;;;;;0.14;100.00;99714.22;2107302;28;20249;-75
2021/10/11 02:58:06;;;;;;;94.72;51.50;;;;;;;0.12;100.00;99716.25;2107057;28;20213;-75
2021/10/11 02:59:10;;;;;;;88.22;49.72;;;;;;;0.12;100.00;99711.00;2106918;28;20224;-76
2021/10/11 03:00:13;;;;;;;83.45;48.15;;;;;;;0.09;100.00;99716.66;2107089;28;20228;-75
2021/10/11 03:01:16;;;;;;;82.15;46.90;;;;;;;0.06;100.00;99710.00;2106552;28;20194;-75
2021/10/11 03:02:19;;;;;;;87.70;48.55;;;;;;;0.04;100.00;99712.06;2115000;28;20196;-75
2021/10/11 03:03:24;;;;;;;87.47;48.17;;;;;;;0.02;100.00;99705.41;2114909;27;20200;-75
2021/10/11 03:04:28;;;;;;;83.53;47.97;;;;;;;0.02;100.00;99708.03;2114814;28;20612;-75
2021/10/11 03:05:32;;;;;;;85.57;46.70;;;;;;;-0.01;100.00;99707.44;2114828;28;20231;-75
2021/10/11 03:06:41;;;;;;;79.40;48.08;;;;;;;-0.05;100.00;99708.06;2114852;28;20291;-75
2021/10/11 03:07:47;;;;;;;87.15;48.50;;;;;;;-0.04;100.00;99715.72;2115156;28;20211;-75
2021/10/11 03:08:49;;;;;;;81.80;46.42;;;;;;;-0.04;100.00;99712.31;2114899;28;20216;-75
2021/10/11 03:09:52;;;;;;;82.72;47.60;;;;;;;-0.06;100.00;99712.50;2115540;28;20192;-75
2021/10/11 03:11:01;;;;;;;97.65;53.47;;;;;;;-0.07;100.00;99710.91;2114338;28;20738;-75
2021/10/11 03:12:04;;;;;;;113.28;59.25;;;;;;;-0.06;100.00;99707.28;2114661;28;20205;-75
2021/10/11 03:13:08;;;;;;;112.78;58.67;;;;;;;-0.07;100.00;99704.88;2106609;28;20283;-75
2021/10/11 03:14:15;;;;;;;117.90;57.80;;;;;;;0.00;100.00;99705.63;2107449;28;20710;-75
2021/10/11 03:15:17;;;;;;;119.63;61.83;;;;;;;0.01;100.00;99712.47;2114713;28;20292;-76
2021/10/11 03:16:19;;;;;;;105.18;58.33;;;;;;;0.01;100.00;99720.34;2114840;28;20532;-76
2021/10/11 03:17:23;;;;;;;108.45;58.33;;;;;;;0.02;100.00;99708.03;2114945;28;20197;-76
2021/10/11 03:18:26;;;;;;;119.47;58.17;;;;;;;0.01;100.00;99712.47;2106655;28;20719;-76
2021/10/11 03:19:33;;;;;;;112.68;58.40;;;;;;;0.03;100.00;99704.41;2114920;28;20177;-76
2021/10/11 03:20:39;;;;;;;127.47;62.08;;;;;;;0.10;100.00;99713.03;2114859;28;20208;-76
2021/10/11 03:21:41;;;;;;;126.65;62.08;;;;;;;0.08;100.00;99709.81;2106817;28;20201;-75
2021/10/11 03:22:45;;;;;;;124.90;62.75;;;;;;;0.09;100.00;99707.00;2114853;28;20264;-75
2021/10/11 03:23:48;;;;;;;124.70;63.38;;;;;;;0.13;100.00;99709.97;2114705;28;20197;-75
2021/10/11 03:24:50;;;;;;;125.32;62.08;;;;;;;0.13;100.00;99709.97;2114660;28;20239;-75
2021/10/11 03:25:58;;;;;;;124.28;61.97;;;;;;;0.13;100.00;99715.22;2106654;28;20204;-75
2021/10/11 03:27:01;;;;;;;115.90;59.58;;;;;;;0.12;100.00;99708.38;2115093;28;20189;-76
2021/10/11 03:28:04;;;;;;;118.88;60.88;;;;;;;0.03;100.00;99694.72;2114955;28;20670;-76
2021/10/11 03:29:06;;;;;;;108.43;56.53;;;;;;;0.10;100.00;99707.78;2114813;28;20274;-76
2021/10/11 03:30:10;;;;;;;103.57;55.97;;;;;;;0.07;100.00;99705.56;2114765;28;20181;-76
2021/10/11 03:31:14;;;;;;;105.35;59.45;;;;;;;0.06;100.00;99709.22;2115013;28;20584;-75
2021/10/11 03:32:21;;;;;;;113.65;58.08;;;;;;;0.04;100.00;99713.88;2114809;28;20743;-76
2021/10/11 03:33:25;;;;;;;101.85;55.00;;;;;;;0.03;100.00;99702.56;2115303;28;20694;-76
2021/10/11 03:34:32;;;;;;;101.03;55.33;;;;;;;-0.02;100.00;99708.44;2115337;28;20220;-76
2021/10/11 03:35:36;;;;;;;103.35;53.58;;;;;;;-0.02;100.00;99708.44;2115280;28;20238;-76
2021/10/11 03:36:41;;;;;;;107.15;58.17;;;;;;;-0.06;100.00;99709.09;2115268;28;20524;-76
2021/10/11 03:37:42;;;;;;;101.82;54.78;;;;;;;-0.07;100.00;99710.91;2114524;28;20204;-76
2021/10/11 03:38:52;;;;;;;102.15;55.90;;;;;;;-0.10;100.00;99700.03;2106486;28;20591;-75
2021/10/11 03:39:59;;;;;;;104.75;55.10;;;;;;;-0.10;100.00;99706.06;2109174;28;20204;-76
2021/10/11 03:41:01;;;;;;;98.43;52.63;;;;;;;-0.14;100.00;99704.09;2116457;28;20682;-75
2021/10/11 03:42:05;;;;;;;109.75;56.63;;;;;;;-0.14;100.00;99704.91;2116941;28;20200;-76
2021/10/11 03:43:07;;;;;;;99.82;54.33;;;;;;;-0.15;100.00;99698.03;2117069;28;20189;-76
2021/10/11 03:44:09;;;;;;;103.13;54.70;;;;;;;-0.15;100.00;99694.63;2117137;28;20216;-75
2021/10/11 03:45:12;;;;;;;98.60;53.17;;;;;;;-0.17;100.00;99696.66;2117122;28;20197;-76
2021/10/11 03:46:17;;;;;;;98.43;54.92;;;;;;;-0.18;100.00;99695.03;2116527;27;20199;-76
2021/10/11 03:47:22;;;;;;;99.95;54.60;;;;;;;-0.20;100.00;99692.63;2116758;28;20165;-76
2021/10/11 03:48:28;;;;;;;99.28;53.75;;;;;;;-0.18;100.00;99692.41;2116689;27;20571;-76
2021/10/11 03:49:32;;;;;;;112.28;56.67;;;;;;;-0.21;100.00;99698.88;2108857;28;20595;-76
2021/10/11 03:50:38;;;;;;;106.07;57.00;;;;;;;-0.22;100.00;99702.50;2116447;28;20269;-76
2021/10/11 03:51:42;;;;;;;108.68;57.25;;;;;;;-0.19;100.00;99691.59;2116997;28;20571;-76
2021/10/11 03:52:47;;;;;;;110.13;58.50;;;;;;;-0.16;100.00;99696.44;2116565;27;20291;-75
2021/10/11 03:53:54;;;;;;;104.28;56.08;;;;;;;-0.14;100.00;99693.59;2108142;28;20205;-76
2021/10/11 03:55:01;;;;;;;104.93;57.88;;;;;;;-0.14;100.00;99689.16;2116579;28;20177;-76
2021/10/11 03:56:02;;;;;;;106.57;58.15;;;;;;;-0.13;100.00;99693.38;2116598;27;20225;-76
2021/10/11 03:57:06;;;;;;;105.28;58.72;;;;;;;-0.11;100.00;99687.94;2108404;28;20189;-75
2021/10/11 03:58:08;;;;;;;113.85;60.53;;;;;;;-0.12;100.00;99689.75;2108218;28;20769;-75
2021/10/11 03:59:12;;;;;;;109.00;59.05;;;;;;;-0.12;100.00;99697.63;2107934;28;20197;-75
2021/10/11 04:00:14;;;;;;;111.95;60.28;;;;;;;-0.08;100.00;99701.44;2116327;28;20741;-76
2021/10/11 04:01:19;;;;;;;112.00;59.42;;;;;;;-0.12;100.00;99697.63;2116250;28;20199;-76
2021/10/11 04:02:24;;;;;;;104.45;58.83;;;;;;;-0.11;100.00;99699.22;2116479;28;20185;-76
2021/10/11 04:03:28;;;;;;;105.07;57.33;;;;;;;-0.14;100.00;99691.78;2116089;28;20734;-75
2021/10/11 04:04:33;;;;;;;98.57;57.28;;;;;;;-0.13;100.00;99697.81;2108344;28;20213;-75
2021/10/11 04:05:38;;;;;;;101.15;57.83;;;;;;;-0.18;100.00;99682.72;2108172;28;20194;-75
2021/10/11 04:06:40;;;;;;;102.05;55.28;;;;;;;-0.20;100.00;99683.94;2116362;28;20229;-75
2021/10/11 04:07:49;;;;;;;100.53;54.75;;;;;;;-0.24;100.00;99682.78;2116608;27;20193;-75
2021/10/11 04:08:58;;;;;;;93.00;53.35;;;;;;;-0.26;100.00;99680.38;2116642;28;20180;-75
2021/10/11 04:10:04;;;;;;;90.80;52.17;;;;;;;-0.31;100.00;99680.97;2116117;28;20189;-75
2021/10/11 04:11:11;;;;;;;99.75;54.83;;;;;;;-0.34;100.00;99684.03;2116153;28;20608;-75
2021/10/11 04:12:20;;;;;;;97.65;52.78;;;;;;;-0.36;100.00;99686.03;2116811;28;20192;-75
2021/10/11 04:13:25;;;;;;;99.95;55.15;;;;;;;-0.39;100.00;99681.22;2116769;28;20192;-75
2021/10/11 04:14:30;;;;;;;94.18;52.92;;;;;;;-0.38;100.00;99684.66;2116823;28;20667;-75
2021/10/11 04:15:32;;;;;;;102.32;55.78;;;;;;;-0.39;100.00;99685.66;2116398;27;20729;-75
2021/10/11 04:16:38;;;;;;;109.15;57.60;;;;;;;-0.39;100.00;99681.22;2115715;28;20682;-76
2021/10/11 04:17:44;;;;;;;103.05;56.75;;;;;;;-0.38;100.00;99682.03;2108619;28;20201;-75
2021/10/11 04:18:47;;;;;;;115.38;56.00;;;;;;;-0.40;100.00;99679.63;2108712;28;20194;-75
2021/10/11 04:19:56;;;;;;;101.57;55.78;;;;;;;-0.40;100.00;99676.19;2108208;28;20225;-75
2021/10/11 04:21:01;;;;;;;105.65;55.40;;;;;;;-0.43;100.00;99687.09;2116191;28;20212;-75
2021/10/11 04:22:02;;;;;;;102.75;56.20;;;;;;;-0.46;100.00;99677.81;2116287;27;20288;-76
2021/10/11 04:23:05;;;;;;;109.22;57.35;;;;;;;-0.43;100.00;99677.41;2107640;28;20246;-75
2021/10/11 04:24:09;;;;;;;108.35;56.55;;;;;;;-0.42;100.00;99680.84;2108100;28;20337;-75
2021/10/11 04:25:12;;;;;;;106.30;57.28;;;;;;;-0.44;100.00;99665.31;2116074;28;20196;-75
2021/10/11 04:26:14;;;;;;;107.30;58.70;;;;;;;-0.46;100.00;99674.41;2116280;27;20304;-75
2021/10/11 04:27:19;;;;;;;107.80;60.33;;;;;;;-0.48;100.00;99655.47;2108035;28;20221;-75
2021/10/11 04:28:23;;;;;;;103.88;58.05;;;;;;;-0.48;100.00;99660.69;2115887;28;20201;-75
2021/10/11 04:29:24;;;;;;;118.18;61.08;;;;;;;-0.49;100.00;99662.53;2116051;28;20199;-75
2021/10/11 04:30:27;;;;;;;117.97;61.57;;;;;;;-0.45;100.00;99662.91;2116749;28;20374;-75
2021/10/11 04:31:30;;;;;;;112.47;60.10;;;;;;;-0.48;100.00;99652.84;2116230;27;20201;-75
2021/10/11 04:32:34;;;;;;;121.57;63.35;;;;;;;-0.48;100.00;99656.25;2107695;28;20197;-75
2021/10/11 04:33:37;;;;;;;125.25;64.78;;;;;;;-0.49;100.00;99649.41;2108113;28;20296;-75
2021/10/11 04:34:41;;;;;;;118.50;62.78;;;;;;;-0.50;100.00;99650.44;2116106;28;20215;-75
2021/10/11 04:35:46;;;;;;;118.72;64.95;;;;;;;-0.46;100.00;99659.47;2116731;28;20272;-75
2021/10/11 04:36:49;;;;;;;121.60;62.78;;;;;;;-0.42;100.00;99652.00;2116156;28;20227;-75
2021/10/11 04:37:56;;;;;;;119.60;63.15;;;;;;;-0.38;100.00;99666.28;2116178;28;20189;-75
2021/10/11 04:39:00;;;;;;;119.00;62.03;;;;;;;-0.36;100.00;99659.81;2115476;28;20601;-74
2021/10/11 04:40:05;;;;;;;118.85;62.58;;;;;;;-0.30;100.00;99663.44;2116028;28;20222;-75
2021/10/11 04:41:12;;;;;;;119.15;63.33;;;;;;;-0.29;100.00;99672.91;2116615;28;20193;-75
2021/10/11 04:42:14;;;;;;;123.25;62.95;;;;;;;-0.31;100.00;99659.19;2115339;28;20200;-75
2021/10/11 04:43:19;;;;;;;114.70;62.33;;;;;;;-0.31;100.00;99665.25;2116337;27;20203;-75
2021/10/11 04:44:21;;;;;;;118.10;64.20;;;;;;;-0.30;100.00;99660.81;2107846;28;20229;-75
2021/10/11 04:45:28;;;;;;;121.93;63.25;;;;;;;-0.30;100.00;99663.44;2107823;28;20733;-75
2021/10/11 04:46:31;;;;;;;126.88;64.85;;;;;;;-0.27;100.00;99663.00;2108539;28;20201;-74
2021/10/11 04:47:37;;;;;;;123.85;66.07;;;;;;;-0.27;100.00;99665.63;2107529;28;20719;-75
2021/10/11 04:48:40;;;;;;;127.03;66.47;;;;;;;-0.27;100.00;99663.00;2108567;28;20288;-75
2021/10/11 04:49:46;;;;;;;122.00;65.85;;;;;;;-0.26;100.00;99661.19;2107993;28;20291;-75
2021/10/11 04:50:47;;;;;;;136.10;67.15;;;;;;;-0.27;100.00;99665.63;2107529;28;20695;-75
2021/10/11 04:51:50;;;;;;;132.60;66.57;;;;;;;-0.28;100.00;99658.78;2107041;28;20201;-75
2021/10/11 04:52:52;;;;;;;122.60;65.97;;;;;;;-0.28;100.00;99664.00;2115924;28;20208;-75